createdAt,value
2022-10-09T00:02:59.223Z,100.00
2022-10-09T00:08:00.882Z,100.00
2022-10-09T00:13:02.557Z,100.00
2022-10-09T00:18:04.318Z,100.00
2022-10-09T00:23:06.744Z,100.00
2022-10-09T00:28:08.489Z,100.00
2022-10-09T00:33:10.228Z,100.00
2022-10-09T00:38:12.412Z,100.00
2022-10-09T00:43:37.576Z,100.00
2022-10-09T00:48:39.286Z,100.00
2022-10-09T00:53:41.393Z,100.00
2022-10-09T00:58:43.179Z,100.00
2022-10-09T01:03:44.833Z,100.00
2022-10-09T01:08:49.466Z,100.00
2022-10-09T01:14:05.108Z,100.00
2022-10-09T01:19:22.599Z,100.00
2022-10-09T01:24:47.945Z,100.00
2022-10-09T01:29:55.434Z,100.00
2022-10-09T01:34:57.917Z,100.00
2022-10-09T01:40:00.737Z,100.00
2022-10-09T01:45:02.444Z,100.00
2022-10-09T01:50:14.836Z,100.00
2022-10-09T01:55:22.550Z,100.00
2022-10-09T02:00:24.718Z,100.00
2022-10-09T02:05:29.040Z,100.00
2022-10-09T02:10:34.420Z,100.00
2022-10-09T02:16:00.614Z,100.00
2022-10-09T02:21:13.172Z,100.00
2022-10-09T02:26:15.587Z,100.00
2022-10-09T02:31:23.776Z,100.00
2022-10-09T02:36:27.121Z,100.00
2022-10-09T02:41:28.937Z,100.00
2022-10-09T02:46:30.732Z,100.00
2022-10-09T02:51:32.630Z,100.00
2022-10-09T02:56:38.069Z,100.00
2022-10-09T03:01:40.762Z,100.00
2022-10-09T03:06:42.477Z,100.00
2022-10-09T03:11:44.135Z,100.00
2022-10-09T03:16:45.803Z,100.00
2022-10-09T03:21:47.481Z,100.00
2022-10-09T03:26:49.201Z,100.00
2022-10-09T03:31:53.118Z,100.00
2022-10-09T03:36:55.204Z,100.00
2022-10-09T03:41:56.916Z,100.00
2022-10-09T03:46:59.353Z,100.00
2022-10-09T03:52:01.088Z,100.00
2022-10-09T03:57:02.785Z,100.00
2022-10-09T04:02:04.511Z,100.00
2022-10-09T04:07:06.167Z,100.00
2022-10-09T04:12:08.041Z,100.00
2022-10-09T04:17:09.796Z,100.00
2022-10-09T04:22:11.459Z,100.00
2022-10-09T04:27:13.184Z,100.00
2022-10-09T04:32:14.858Z,100.00
2022-10-09T04:37:16.529Z,100.00
2022-10-09T04:42:18.197Z,100.00
2022-10-09T04:47:19.863Z,100.00
2022-10-09T04:52:21.536Z,100.00
2022-10-09T04:57:23.196Z,100.00
2022-10-09T05:02:24.875Z,100.00
2022-10-09T05:07:26.657Z,100.00
2022-10-09T05:12:28.304Z,100.00
2022-10-09T05:17:30.016Z,100.00
2022-10-09T05:22:31.844Z,100.00
2022-10-09T05:27:33.497Z,100.00
2022-10-09T05:32:35.228Z,100.00
2022-10-09T05:37:36.879Z,100.00
2022-10-09T05:42:38.544Z,100.00
2022-10-09T05:47:40.191Z,100.00
2022-10-09T05:52:41.866Z,100.00
2022-10-09T05:57:43.557Z,100.00
2022-10-09T06:02:45.525Z,100.00
2022-10-09T06:07:47.742Z,100.00
2022-10-09T06:12:49.720Z,100.00
2022-10-09T06:17:51.557Z,100.00
2022-10-09T06:22:53.222Z,100.00
2022-10-09T06:27:54.880Z,100.00
2022-10-09T06:32:56.631Z,100.00
2022-10-09T06:37:58.286Z,100.00
2022-10-09T06:43:00.367Z,100.00
2022-10-09T06:48:02.035Z,100.00
2022-10-09T06:53:05.407Z,100.00
2022-10-09T06:58:07.257Z,100.00
2022-10-09T07:03:09.048Z,100.00
2022-10-09T07:08:10.844Z,100.00
2022-10-09T07:13:12.509Z,100.00
2022-10-09T07:18:15.984Z,100.00
2022-10-09T07:23:17.741Z,100.00
2022-10-09T07:28:19.480Z,100.00
2022-10-09T07:33:21.180Z,100.00
2022-10-09T07:38:24.639Z,100.00
2022-10-09T07:43:26.344Z,100.00
2022-10-09T07:48:28.872Z,99.15
2022-10-09T07:53:33.789Z,99.50
2022-10-09T07:58:37.528Z,82.71
2022-10-09T08:03:39.240Z,64.92
2022-10-09T08:08:41.546Z,58.17
2022-10-09T08:13:44.641Z,49.80
2022-10-09T08:18:46.891Z,48.48
2022-10-09T08:23:54.107Z,43.14
2022-10-09T08:28:58.640Z,42.12
2022-10-09T08:34:02.734Z,46.63
2022-10-09T08:39:04.553Z,48.66
2022-10-09T08:44:23.861Z,53.04
2022-10-09T08:49:48.475Z,49.54
2022-10-09T08:54:51.490Z,45.80
2022-10-09T08:59:53.168Z,42.35
2022-10-09T09:05:20.218Z,45.73
2022-10-09T09:10:42.768Z,50.36
2022-10-09T09:15:52.547Z,51.49
2022-10-09T09:20:56.406Z,53.01
2022-10-09T09:25:59.671Z,56.12
2022-10-09T09:31:12.798Z,63.45
2022-10-09T09:36:22.777Z,59.15
2022-10-09T09:41:24.940Z,61.37
2022-10-09T09:46:30.489Z,63.50
2022-10-09T09:51:32.897Z,64.90
2022-10-09T09:56:59.924Z,60.53
2022-10-09T10:02:20.734Z,58.10
2022-10-09T10:07:34.888Z,54.35
2022-10-09T10:12:41.879Z,46.12
2022-10-09T10:17:43.629Z,40.14
2022-10-09T10:22:53.952Z,40.22
2022-10-09T10:28:02.212Z,38.63
2022-10-09T10:33:26.502Z,36.09
2022-10-09T10:38:43.975Z,39.13
2022-10-09T10:43:54.469Z,42.20
2022-10-09T10:48:59.589Z,43.05
2022-10-09T10:54:22.905Z,41.15
2022-10-09T10:59:49.693Z,41.24
2022-10-09T11:05:34.068Z,45.90
2022-10-09T11:10:54.060Z,42.77
2022-10-09T11:16:49.328Z,43.54
2022-10-09T11:21:59.827Z,48.14
2022-10-09T11:27:24.067Z,44.16
2022-10-09T11:32:38.285Z,45.88
2022-10-09T11:37:43.477Z,43.26
2022-10-09T11:42:56.854Z,40.08
2022-10-09T11:48:06.514Z,43.26
2022-10-09T11:53:14.910Z,42.64
2022-10-09T11:58:19.359Z,40.55
2022-10-09T12:03:30.171Z,41.66
2022-10-09T12:08:32.085Z,40.54
2022-10-09T12:13:36.748Z,42.67
2022-10-09T12:18:46.933Z,42.58
2022-10-09T12:23:50.429Z,41.48
2022-10-09T12:28:58.744Z,47.52
2022-10-09T12:34:18.612Z,46.78
2022-10-09T12:39:23.137Z,44.46
2022-10-09T12:44:34.609Z,43.43
2022-10-09T12:49:36.359Z,43.92
2022-10-09T12:54:43.549Z,49.23
2022-10-09T12:59:46.982Z,49.38
2022-10-09T13:04:57.858Z,50.44
2022-10-09T13:10:02.883Z,52.21
2022-10-09T13:15:24.230Z,52.65
2022-10-09T13:20:32.608Z,51.39
2022-10-09T13:25:37.471Z,52.13
2022-10-09T13:30:39.226Z,49.29
2022-10-09T13:35:41.510Z,52.31
2022-10-09T13:40:44.368Z,50.07
2022-10-09T13:45:46.107Z,52.46
2022-10-09T13:50:47.830Z,52.84
2022-10-09T13:55:49.501Z,52.28
2022-10-09T14:00:51.164Z,51.18
2022-10-09T14:06:01.593Z,51.00
2022-10-09T14:11:03.349Z,50.62
2022-10-09T14:16:06.513Z,51.94
2022-10-09T14:21:15.251Z,52.87
2022-10-09T14:26:17.437Z,57.46
2022-10-09T14:31:19.326Z,54.74
2022-10-09T14:36:21.016Z,54.57
2022-10-09T14:41:22.957Z,55.32
2022-10-09T14:46:26.787Z,56.96
2022-10-09T14:51:28.479Z,56.86
2022-10-09T14:56:30.238Z,56.72
2022-10-09T15:01:33.061Z,56.51
2022-10-09T15:06:34.845Z,59.42
2022-10-09T15:11:37.115Z,59.62
2022-10-09T15:16:38.871Z,61.45
2022-10-09T15:21:41.372Z,60.01
2022-10-09T15:26:43.124Z,61.32
2022-10-09T15:31:44.818Z,64.36
2022-10-09T15:36:46.974Z,65.64
2022-10-09T15:41:48.644Z,66.26
2022-10-09T15:46:50.443Z,68.52
2022-10-09T15:51:52.196Z,65.90
2022-10-09T15:56:54.721Z,67.61
2022-10-09T16:01:56.432Z,67.96
2022-10-09T16:06:58.340Z,70.94
2022-10-09T16:12:00.489Z,73.30
2022-10-09T16:17:02.164Z,75.67
2022-10-09T16:22:03.876Z,75.91
2022-10-09T16:27:05.545Z,78.04
2022-10-09T16:32:07.300Z,79.31
2022-10-09T16:37:09.026Z,80.75
2022-10-09T16:42:10.848Z,82.98
2022-10-09T16:47:14.071Z,83.92
2022-10-09T16:52:15.794Z,85.12
2022-10-09T16:57:18.289Z,86.13
2022-10-09T17:02:19.963Z,87.39
2022-10-09T17:07:22.974Z,87.89
2022-10-09T17:12:24.669Z,87.71
2022-10-09T17:17:26.399Z,88.40
2022-10-09T17:22:28.074Z,90.72
2022-10-09T17:27:29.725Z,91.30
2022-10-09T17:32:31.381Z,91.03
2022-10-09T17:37:33.070Z,93.86
2022-10-09T17:42:34.992Z,95.14
2022-10-09T17:47:36.703Z,95.60
2022-10-09T17:52:38.364Z,96.59
2022-10-09T17:57:40.158Z,97.61
2022-10-09T18:02:41.880Z,98.07
2022-10-09T18:07:43.592Z,98.93
2022-10-09T18:12:45.254Z,99.45
2022-10-09T18:17:47.019Z,99.28
2022-10-09T18:22:48.765Z,98.38
2022-10-09T18:27:50.696Z,98.82
2022-10-09T18:32:52.758Z,98.81
2022-10-09T18:37:54.659Z,98.66
2022-10-09T18:42:56.317Z,99.38
2022-10-09T18:47:59.490Z,100.00
2022-10-09T18:53:01.234Z,100.00
2022-10-09T18:58:04.917Z,100.00
2022-10-09T19:03:06.921Z,100.00
2022-10-09T19:08:08.593Z,100.00
2022-10-09T19:13:10.309Z,100.00
2022-10-09T19:18:11.963Z,100.00
2022-10-09T19:23:15.230Z,100.00
2022-10-09T19:28:17.913Z,100.00
2022-10-09T19:33:19.669Z,100.00
2022-10-09T19:38:22.842Z,100.00
2022-10-09T19:43:25.510Z,100.00
2022-10-09T19:48:27.172Z,100.00
2022-10-09T19:53:28.845Z,100.00
2022-10-09T19:58:30.546Z,100.00
2022-10-09T20:03:32.259Z,100.00
2022-10-09T20:08:34.444Z,100.00
2022-10-09T20:13:38.257Z,100.00
2022-10-09T20:18:42.379Z,100.00
2022-10-09T20:23:44.885Z,100.00
2022-10-09T20:28:48.309Z,100.00
2022-10-09T20:33:51.140Z,100.00
2022-10-09T20:38:57.837Z,100.00
2022-10-09T20:44:01.380Z,100.00
2022-10-09T20:49:05.672Z,100.00
2022-10-09T20:54:13.818Z,100.00
2022-10-09T20:59:17.064Z,100.00
2022-10-09T21:04:18.732Z,100.00
2022-10-09T21:09:20.462Z,100.00
2022-10-09T21:14:22.173Z,100.00
2022-10-09T21:19:24.101Z,100.00
2022-10-09T21:24:26.083Z,100.00
2022-10-09T21:29:27.826Z,100.00
2022-10-09T21:34:29.512Z,100.00
2022-10-09T21:39:31.617Z,100.00
2022-10-09T21:44:33.272Z,100.00
2022-10-09T21:49:34.941Z,100.00
2022-10-09T21:54:36.715Z,100.00
2022-10-09T21:59:38.459Z,100.00
2022-10-09T22:04:40.122Z,100.00
2022-10-09T22:09:41.852Z,100.00
2022-10-09T22:14:43.804Z,100.00
2022-10-09T22:19:45.490Z,100.00
2022-10-09T22:24:47.149Z,100.00
2022-10-09T22:29:48.804Z,100.00
2022-10-09T22:34:52.087Z,100.00
2022-10-09T22:39:53.756Z,100.00
2022-10-09T22:44:55.436Z,100.00
2022-10-09T22:49:57.481Z,100.00
2022-10-09T22:55:00.606Z,100.00
2022-10-09T23:00:02.284Z,100.00
2022-10-09T23:05:04.342Z,100.00
2022-10-09T23:10:06.174Z,100.00
2022-10-09T23:15:08.123Z,100.00
2022-10-09T23:20:10.523Z,100.00
2022-10-09T23:25:12.260Z,100.00
2022-10-09T23:30:13.939Z,100.00
2022-10-09T23:35:15.650Z,100.00
2022-10-09T23:40:17.380Z,100.00
2022-10-09T23:45:19.055Z,100.00
2022-10-09T23:50:20.736Z,100.00
2022-10-09T23:55:22.410Z,100.00
